Time;durP1;ratioP1;P1;durP2;ratioP2;P2;SDS_P1;SDS_P2;PMS_P1;PMS_P2;Temp;Humidity;BMP_temperature;BMP_pressure;BME280_temperature;BME280_humidity;BME280_pressure;Samples;Min_cycle;Max_cycle;Signal;HPM_P1;HPM_P2
2023/05/18 00:53:51;;;;;;;;;;;;;;;;;;;;;
2023/05/18 02:09:14;;;;;;;;;;;;;;;;;;;;;
2023/05/18 02:20:05;;;;;;;8.60;2.30;;;10.10;99.90;;;;;;5732341;25;20175;-95
2023/05/18 02:22:36;;;;;;;8.98;2.67;;;10.10;99.90;;;;;;5770420;24;20007;-92
2023/05/18 02:25:05;;;;;;;10.82;2.58;;;10.10;99.90;;;;;;5897474;23;20035;-90
2023/05/18 02:27:43;;;;;;;;;;;;;;;;;;;;;
2023/05/18 02:30:12;;;;;;;11.73;2.78;;;10.10;99.90;;;;;;6057774;23;20050;-91
2023/05/18 02:32:45;;;;;;;6.63;2.40;;;10.10;99.90;;;;;;6115652;23;19986;-91
2023/05/18 02:35:12;;;;;;;11.23;3.00;;;10.10;99.90;;;;;;6134114;23;20037;-91
2023/05/18 02:37:43;;;;;;;11.25;3.10;;;10.10;99.90;;;;;;6149396;23;20009;-90
2023/05/18 02:40:11;;;;;;;7.35;2.75;;;10.10;99.90;;;;;;6156576;23;20000;-91
2023/05/18 02:44:15;;;;;;;;;;;;;;;;;;;;;
2023/05/18 03:51:29;;;;;;;;;;;;;;;;;;;;;
2023/05/18 03:54:45;;;;;;;;;;;;;;;;;;;;;
2023/05/18 06:02:40;;;;;;;;;;;;;;;;;;;;;
2023/05/18 06:06:17;;;;;;;;;;;;;;;;;;;;;
2023/05/18 06:38:47;;;;;;;12.40;2.85;;;10.20;99.90;;;;;;5625416;22;15056863;-94
2023/05/18 06:41:38;;;;;;;6.47;2.60;;;10.20;99.90;;;;;;6239757;23;20061;-88
2023/05/18 06:44:25;;;;;;;11.48;3.72;;;10.30;99.90;;;;;;6255227;23;20004;-90
2023/05/18 06:46:52;;;;;;;9.27;2.85;;;10.30;99.90;;;;;;6255768;22;20109;-88
2023/05/18 06:49:18;;;;;;;7.82;2.65;;;10.30;99.90;;;;;;6257022;22;20083;-89
2023/05/18 06:51:44;;;;;;;12.05;3.00;;;10.30;99.90;;;;;;6255122;23;20369;-88
2023/05/18 06:54:12;;;;;;;18.65;3.17;;;10.40;99.90;;;;;;6254723;23;20373;-89
2023/05/18 06:56:42;;;;;;;15.93;3.13;;;10.40;99.90;;;;;;6254876;23;20437;-89
2023/05/18 06:59:15;;;;;;;13.50;3.03;;;10.40;99.90;;;;;;6231005;23;20426;-88
2023/05/18 07:01:49;;;;;;;13.32;3.08;;;10.50;99.90;;;;;;6255429;23;20049;-89
2023/05/18 07:04:23;;;;;;;6.65;3.05;;;10.50;99.90;;;;;;6255800;23;19996;-89
2023/05/18 07:07:26;;;;;;;9.52;2.97;;;10.60;99.90;;;;;;6255743;23;20000;-94
2023/05/18 07:10:44;;;;;;;;;;;;;;;;;;;;;
2023/05/18 07:14:22;;;;;;;;;;;;;;;;;;;;;
2023/05/18 07:17:07;;;;;;;;;;;;;;;;;;;;;
2023/05/18 07:20:38;;;;;;;;;;;;;;;;;;;;;
2023/05/18 07:26:56;;;;;;;12.38;3.13;;;10.80;99.90;;;;;;6212053;22;20006;-94
2023/05/18 07:32:55;;;;;;;;;;;;;;;;;;;;;
2023/05/18 07:36:17;;;;;;;9.65;3.03;;;11.00;99.90;;;;;;6251233;23;20087;-94
2023/05/18 07:42:45;;;;;;;;;;;;;;;;;;;;;
2023/05/18 07:45:52;;;;;;;9.95;2.60;;;11.20;99.90;;;;;;6250656;23;20094;-93
2023/05/18 07:56:13;;;;;;;11.98;2.97;;;11.40;99.90;;;;;;6208993;23;20012;-94
2023/05/18 08:02:59;;;;;;;11.93;3.58;;;11.50;99.90;;;;;;6117504;23;20175;-93
2023/05/18 08:05:59;;;;;;;;;;;;;;;;;;;;;
2023/05/18 08:15:37;;;;;;;10.32;2.47;;;11.80;99.90;;;;;;6240418;22;20013;-95
2023/05/18 08:18:26;;;;;;;7.93;2.65;;;11.90;99.90;;;;;;6249064;23;20008;-92
2023/05/18 08:21:47;;;;;;;7.90;2.90;;;12.00;99.90;;;;;;6227004;23;20082;-94
2023/05/18 08:24:23;;;;;;;10.82;3.50;;;12.10;99.90;;;;;;6247884;23;20026;-94
2023/05/18 08:27:32;;;;;;;;;;;;;;;;;;;;;
2023/05/18 08:37:25;;;;;;;;;;;;;;;;;;;;;
2023/05/18 08:40:42;;;;;;;;;;;;;;;;;;;;;
2023/05/18 08:44:09;;;;;;;11.35;2.78;;;12.70;99.90;;;;;;6245030;22;20008;-94
2023/05/18 08:47:24;;;;;;;;;;;;;;;;;;;;;
2023/05/18 08:50:51;;;;;;;;;;;;;;;;;;;;;
2023/05/18 08:54:01;;;;;;;10.80;3.03;;;12.90;99.90;;;;;;6250085;23;20521;-92
2023/05/18 09:06:09;;;;;;;7.30;2.78;;;13.10;99.90;;;;;;6241127;22;20443;-93
2023/05/18 09:09:17;;;;;;;11.80;2.33;;;13.10;99.90;;;;;;6248706;23;20012;-93
2023/05/18 09:15:40;;;;;;;;;;;;;;;;;;;;;
2023/05/18 09:18:26;;;;;;;8.75;2.60;;;13.20;99.90;;;;;;6249794;23;20087;-92
2023/05/18 09:21:29;;;;;;;;;;;;;;;;;;;;;
2023/05/18 09:24:46;;;;;;;;;;;;;;;;;;;;;
2023/05/18 09:27:51;;;;;;;;;;;;;;;;;;;;;
2023/05/18 09:31:14;;;;;;;;;;;;;;;;;;;;;
2023/05/18 09:40:42;;;;;;;12.98;3.97;;;13.60;99.90;;;;;;6151820;23;20025;-95
2023/05/18 09:50:22;;;;;;;;;;;;;;;;;;;;;
2023/05/18 09:56:59;;;;;;;10.70;3.22;;;13.90;99.90;;;;;;6142544;23;20014;-93
2023/05/18 10:00:43;;;;;;;12.13;3.22;;;14.00;99.90;;;;;;6078164;23;20007;-93
2023/05/18 10:03:21;;;;;;;10.05;2.92;;;14.00;99.90;;;;;;6164878;23;20032;-93
2023/05/18 10:05:59;;;;;;;12.85;2.95;;;14.10;99.90;;;;;;6186194;23;19985;-93
2023/05/18 10:11:50;;;;;;;;;;;;;;;;;;;;;
2023/05/18 10:14:56;;;;;;;10.35;2.72;;;14.20;99.90;;;;;;6188325;23;20021;-93
2023/05/18 10:17:43;;;;;;;9.07;2.80;;;14.30;99.90;;;;;;6168637;23;20012;-92
2023/05/18 10:24:02;;;;;;;12.88;2.95;;;14.40;99.90;;;;;;6210592;22;20004;-92
2023/05/18 10:27:21;;;;;;;10.57;2.90;;;14.40;99.90;;;;;;6246045;23;20008;-92
2023/05/18 10:30:22;;;;;;;13.50;3.25;;;14.50;99.90;;;;;;6249204;23;20000;-94
2023/05/18 10:34:20;;;;;;;;;;;;;;;;;;;;;
2023/05/18 10:36:49;;;;;;;9.77;2.97;;;14.60;99.90;;;;;;6232276;22;20008;-93
2023/05/18 10:46:25;;;;;;;;;;;;;;;;;;;;;
2023/05/18 10:49:40;;;;;;;;;;;;;;;;;;;;;
2023/05/18 10:53:10;;;;;;;;;;;;;;;;;;;;;
2023/05/18 10:56:18;;;;;;;;;;;;;;;;;;;;;
2023/05/18 11:02:46;;;;;;;;;;;;;;;;;;;;;
2023/05/18 11:06:35;;;;;;;;;;;;;;;;;;;;;
2023/05/18 11:09:11;;;;;;;10.45;3.15;;;15.10;99.90;;;;;;6241795;22;20004;-93
2023/05/18 11:12:33;;;;;;;12.25;2.90;;;15.20;99.80;;;;;;6180812;23;19990;-93
2023/05/18 11:15:31;;;;;;;;;;;;;;;;;;;;;
2023/05/18 11:21:42;;;;;;;12.93;2.70;;;15.30;99.20;;;;;;6235123;22;20009;-94
2023/05/18 11:31:06;;;;;;;;;;;;;;;;;;;;;
2023/05/18 11:34:01;;;;;;;8.98;2.88;;;15.50;98.80;;;;;;6159213;23;20066;-93
2023/05/18 11:43:28;;;;;;;11.73;2.55;;;15.60;98.10;;;;;;5962652;23;20024;-85
2023/05/18 11:45:56;;;;;;;10.20;2.63;;;15.70;97.90;;;;;;6042248;23;20003;-88
2023/05/18 11:48:55;;;;;;;8.65;2.30;;;15.70;97.70;;;;;;6045656;23;19999;-93
2023/05/18 11:51:30;;;;;;;8.38;2.42;;;15.70;97.70;;;;;;6010227;23;20011;-93
2023/05/18 11:54:00;;;;;;;8.10;2.70;;;15.80;97.70;;;;;;6132996;23;20008;-94
2023/05/18 12:04:08;;;;;;;;;;;;;;;;;;;;;
2023/05/18 12:17:39;;;;;;;;;;;;;;;;;;;;;
2023/05/18 12:24:04;;;;;;;9.85;3.00;;;16.30;95.90;;;;;;6017500;23;20051;-94
2023/05/18 12:26:55;;;;;;;;;;;;;;;;;;;;;
2023/05/18 12:33:07;;;;;;;;;;;;;;;;;;;;;
2023/05/18 12:36:10;;;;;;;8.98;2.75;;;16.50;95.90;;;;;;6086387;23;20078;-96
2023/05/18 12:39:06;;;;;;;8.05;2.75;;;16.50;95.90;;;;;;6100480;23;20057;-94
2023/05/18 12:42:39;;;;;;;8.45;3.33;;;16.60;95.60;;;;;;6106328;23;20017;-95
2023/05/18 12:45:08;;;;;;;10.60;2.60;;;16.60;95.50;;;;;;6154977;23;20013;-88
2023/05/18 12:47:41;;;;;;;11.40;3.22;;;16.70;95.20;;;;;;6131660;23;20006;-88
2023/05/18 12:50:11;;;;;;;9.20;2.85;;;16.70;95.00;;;;;;6160917;23;20082;-88
2023/05/18 12:52:39;;;;;;;11.05;3.08;;;16.80;94.50;;;;;;6168137;23;20059;-88
2023/05/18 12:55:09;;;;;;;8.52;2.95;;;16.80;93.80;;;;;;6166380;23;20100;-88
2023/05/18 12:57:40;;;;;;;8.77;3.40;;;16.80;93.80;;;;;;6191003;23;20001;-87
2023/05/18 13:00:09;;;;;;;;;;;16.90;93.50;;;;;;6168499;23;20039;-87
2023/05/18 13:02:37;;;;;;;10.65;2.97;;;17.00;92.80;;;;;;6192464;23;19900;-87
2023/05/18 13:05:10;;;;;;;8.73;3.28;;;17.00;93.20;;;;;;6191767;23;20087;-87
2023/05/18 13:07:41;;;;;;;7.93;3.45;;;17.00;93.70;;;;;;6191507;23;20060;-88
2023/05/18 13:10:11;;;;;;;9.00;2.50;;;17.10;93.80;;;;;;6186050;23;20434;-88
2023/05/18 13:12:47;;;;;;;9.53;2.90;;;17.20;94.10;;;;;;6191716;23;20000;-86
2023/05/18 13:15:24;;;;;;;7.72;2.70;;;17.20;93.70;;;;;;6216634;23;20032;-87
2023/05/18 13:17:58;;;;;;;8.00;2.90;;;17.30;93.90;;;;;;6190855;23;20412;-91
2023/05/18 13:20:57;;;;;;;;;;;;;;;;;;;;;
2023/05/18 13:23:55;;;;;;;10.05;3.08;;;17.40;93.40;;;;;;6219819;23;20068;-94
2023/05/18 13:26:27;;;;;;;6.72;2.47;;;17.40;93.50;;;;;;6216587;23;20015;-90
2023/05/18 13:29:22;;;;;;;8.43;2.75;;;17.50;93.40;;;;;;6192144;23;20004;-87
2023/05/18 13:31:50;;;;;;;9.75;3.83;;;17.60;92.80;;;;;;6177345;23;20123;-90
2023/05/18 13:34:16;;;;;;;75.03;5.60;;;17.60;92.80;;;;;;6191157;23;20465;-88
2023/05/18 13:36:44;;;;;;;8.38;3.35;;;17.70;92.80;;;;;;6192301;23;20011;-88
2023/05/18 13:39:11;;;;;;;7.82;2.80;;;17.70;92.50;;;;;;6213526;22;20074;-88
2023/05/18 13:41:36;;;;;;;9.27;3.13;;;17.80;92.50;;;;;;6267001;23;19995;-87
2023/05/18 13:44:02;;;;;;;10.20;3.42;;;17.90;92.40;;;;;;6268684;23;20051;-88
2023/05/18 13:46:38;;;;;;;7.35;3.10;;;17.90;92.00;;;;;;6265124;23;20007;-87
2023/05/18 13:49:06;;;;;;;8.15;3.25;;;17.90;91.90;;;;;;6264713;22;20026;-89
2023/05/18 13:51:34;;;;;;;13.88;3.65;;;17.90;92.00;;;;;;6263828;22;20024;-90
2023/05/18 13:54:00;;;;;;;7.78;3.22;;;18.00;92.10;;;;;;6257078;23;20011;-92
2023/05/18 13:56:26;;;;;;;9.00;3.28;;;18.10;91.90;;;;;;6248302;23;20022;-89
2023/05/18 13:59:00;;;;;;;8.18;3.28;;;18.10;91.80;;;;;;6246500;23;20000;-89
2023/05/18 14:01:31;;;;;;;6.43;2.40;;;18.20;92.10;;;;;;6223667;23;20135;-89
2023/05/18 14:04:07;;;;;;;;;;;;;;;;;;;;;
2023/05/18 14:06:38;;;;;;;9.57;3.38;;;18.30;92.10;;;;;;6250322;23;20083;-89
2023/05/18 14:09:32;;;;;;;;;;;;;;;;;;;;;
2023/05/18 14:12:09;;;;;;;7.80;2.90;;;18.40;91.10;;;;;;6248668;23;20079;-90
2023/05/18 14:14:45;;;;;;;7.78;2.60;;;18.40;91.20;;;;;;6223984;23;20099;-89
2023/05/18 14:17:34;;;;;;;9.27;3.25;;;18.40;91.30;;;;;;6223360;23;20004;-90
2023/05/18 14:20:08;;;;;;;11.40;3.38;;;18.50;91.60;;;;;;6248029;23;20003;-89
2023/05/18 14:22:45;;;;;;;7.60;2.97;;;18.50;91.10;;;;;;6247885;23;20000;-92
2023/05/18 14:25:15;;;;;;;6.60;3.03;;;18.50;90.50;;;;;;6222907;23;20004;-90
2023/05/18 14:55:41;;;;;;;10.45;3.22;;;18.70;88.00;;;;;;6060407;23;20023;-94
2023/05/18 14:58:47;;;;;;;;;;;;;;;;;;;;;
2023/05/18 15:07:55;;;;;;;11.63;3.50;;;18.70;85.30;;;;;;6100921;23;20009;-94
2023/05/18 15:10:56;;;;;;;;;;;;;;;;;;;;;
2023/05/18 15:14:16;;;;;;;;;;;;;;;;;;;;;
2023/05/18 15:20:34;;;;;;;;;;;;;;;;;;;;;
2023/05/18 15:23:17;;;;;;;;;;;;;;;;;;;;;
2023/05/18 15:40:27;;;;;;;7.30;2.88;;;19.00;84.00;;;;;;6101556;23;20080;-93
2023/05/18 15:47:09;;;;;;;;;;;;;;;;;;;;;
2023/05/18 16:41:57;;;;;;;;;;;;;;;;;;;;;
2023/05/18 16:49:09;;;;;;;;;;;;;;;;;;;;;
2023/05/18 16:52:50;;;;;;;;;;;;;;;;;;;;;
2023/05/18 17:21:56;;;;;;;;;;;;;;;;;;;;;
2023/05/18 18:26:31;;;;;;;;;;;;;;;;;;;;;
2023/05/18 18:29:56;;;;;;;;;;;;;;;;;;;;;
2023/05/18 18:33:18;;;;;;;;;;;;;;;;;;;;;
2023/05/18 19:11:01;;;;;;;7.45;3.05;;;17.10;84.60;;;;;;6155916;23;20052;-94
2023/05/18 20:09:40;;;;;;;;;;;;;;;;;;;;;
2023/05/18 20:13:08;;;;;;;;;;;;;;;;;;;;;
2023/05/18 20:25:59;;;;;;;;;;;;;;;;;;;;;
2023/05/18 20:29:14;;;;;;;10.10;3.70;;;15.80;88.40;;;;;;5992764;23;20079;-93
2023/05/18 20:35:22;;;;;;;11.52;4.32;;;15.70;87.70;;;;;;6088892;23;20082;-93
2023/05/18 20:38:42;;;;;;;;;;;;;;;;;;;;;
2023/05/18 21:00:21;;;;;;;10.18;4.25;;;15.30;90.10;;;;;;6286142;22;20024;-91
2023/05/18 21:02:49;;;;;;;9.02;3.65;;;15.30;90.40;;;;;;6278579;22;20000;-90
2023/05/18 21:05:15;;;;;;;8.48;3.95;;;15.30;90.40;;;;;;6252418;22;20027;-90
2023/05/18 21:07:44;;;;;;;9.10;3.65;;;15.20;90.30;;;;;;6273843;22;20002;-90
2023/05/18 21:10:10;;;;;;;7.55;3.72;;;15.20;90.40;;;;;;6274492;22;20029;-89
2023/05/18 21:12:36;;;;;;;7.95;3.88;;;15.20;90.50;;;;;;6271290;22;20000;-90
2023/05/18 21:15:03;;;;;;;9.80;4.55;;;15.20;90.50;;;;;;6261657;22;20057;-89
2023/05/18 21:17:29;;;;;;;9.38;4.20;;;15.20;90.40;;;;;;6252825;22;20062;-89
2023/05/18 21:19:55;;;;;;;14.30;4.28;;;15.10;90.40;;;;;;6228042;22;20023;-90
2023/05/18 21:22:30;;;;;;;8.95;4.20;;;15.10;90.50;;;;;;6227634;22;20003;-89
2023/05/18 21:24:56;;;;;;;8.05;3.58;;;15.10;90.70;;;;;;6253256;22;20004;-91
2023/05/18 22:56:03;;;;;;;;;;;;;;;;;;;;;
2023/05/18 23:17:56;;;;;;;;;;;;;;;;;;;;;
